sensor_id;sensor_type;location;lat;lon;timestamp;pressure;altitude;pressure_sealevel;temperature;humidity
49979;BME280;35869;50.990;6.962;2023-03-31T00:03:06;100286.69;;;11.20;92.04
49979;BME280;35869;50.990;6.962;2023-03-31T00:08:09;100280.22;;;11.28;92.62
49979;BME280;35869;50.990;6.962;2023-03-31T00:13:10;100273.69;;;11.20;94.21
49979;BME280;35869;50.990;6.962;2023-03-31T00:18:10;100266.72;;;11.21;96.14
49979;BME280;35869;50.990;6.962;2023-03-31T00:23:10;100263.44;;;11.17;97.22
49979;BME280;35869;50.990;6.962;2023-03-31T00:28:10;100258.41;;;11.30;95.81
49979;BME280;35869;50.990;6.962;2023-03-31T00:33:11;100234.50;;;11.24;97.06
49979;BME280;35869;50.990;6.962;2023-03-31T00:38:11;100219.06;;;11.20;98.81
49979;BME280;35869;50.990;6.962;2023-03-31T00:43:25;100203.13;;;11.27;98.23
49979;BME280;35869;50.990;6.962;2023-03-31T00:48:26;100192.72;;;11.27;98.92
49979;BME280;35869;50.990;6.962;2023-03-31T00:53:29;100173.47;;;11.29;96.54
49979;BME280;35869;50.990;6.962;2023-03-31T00:58:31;100170.72;;;11.32;97.67
49979;BME280;35869;50.990;6.962;2023-03-31T01:03:32;100164.69;;;11.32;97.06
49979;BME280;35869;50.990;6.962;2023-03-31T01:08:32;100146.53;;;11.30;95.48
49979;BME280;35869;50.990;6.962;2023-03-31T01:13:37;100135.28;;;11.30;94.28
49979;BME280;35869;50.990;6.962;2023-03-31T01:18:38;100131.94;;;11.28;95.21
49979;BME280;35869;50.990;6.962;2023-03-31T01:23:40;100125.91;;;11.27;94.34
49979;BME280;35869;50.990;6.962;2023-03-31T01:29:07;100108.97;;;11.20;94.40
49979;BME280;35869;50.990;6.962;2023-03-31T01:51:03;100080.03;;;11.10;93.49
49979;BME280;35869;50.990;6.962;2023-03-31T01:55:49;100076.59;;;11.10;94.28
49979;BME280;35869;50.990;6.962;2023-03-31T02:00:58;100075.84;;;11.08;94.51
49979;BME280;35869;50.990;6.962;2023-03-31T02:06:04;100074.84;;;11.10;96.41
49979;BME280;35869;50.990;6.962;2023-03-31T02:11:06;100059.50;;;11.06;96.31
49979;BME280;35869;50.990;6.962;2023-03-31T02:16:10;100049.09;;;11.06;97.15
49979;BME280;35869;50.990;6.962;2023-03-31T02:21:13;100034.16;;;11.09;97.46
49979;BME280;35869;50.990;6.962;2023-03-31T02:26:18;100013.72;;;11.03;99.20
49979;BME280;35869;50.990;6.962;2023-03-31T02:31:27;99989.28;;;11.06;99.31
49979;BME280;35869;50.990;6.962;2023-03-31T02:36:29;99974.50;;;11.06;99.26
49979;BME280;35869;50.990;6.962;2023-03-31T02:41:29;99956.41;;;11.05;97.48
49979;BME280;35869;50.990;6.962;2023-03-31T02:46:30;99935.75;;;11.02;98.48
49979;BME280;35869;50.990;6.962;2023-03-31T02:57:16;99900.41;;;10.99;98.61
49979;BME280;35869;50.990;6.962;2023-03-31T03:07:46;99865.84;;;10.97;97.33
49979;BME280;35869;50.990;6.962;2023-03-31T03:12:56;99854.63;;;10.97;97.31
49979;BME280;35869;50.990;6.962;2023-03-31T03:17:58;99852.09;;;10.95;99.53
49979;BME280;35869;50.990;6.962;2023-03-31T03:22:58;99838.38;;;10.93;98.62
49979;BME280;35869;50.990;6.962;2023-03-31T03:27:59;99839.19;;;10.93;99.06
49979;BME280;35869;50.990;6.962;2023-03-31T03:32:59;99837.53;;;10.92;97.95
49979;BME280;35869;50.990;6.962;2023-03-31T03:37:59;99824.78;;;10.88;98.87
49979;BME280;35869;50.990;6.962;2023-03-31T03:43:00;99810.13;;;10.87;98.99
49979;BME280;35869;50.990;6.962;2023-03-31T03:48:00;99806.81;;;10.85;98.74
49979;BME280;35869;50.990;6.962;2023-03-31T03:53:00;99786.91;;;10.84;97.95
49979;BME280;35869;50.990;6.962;2023-03-31T03:58:00;99784.31;;;10.84;98.96
49979;BME280;35869;50.990;6.962;2023-03-31T04:03:01;99780.81;;;10.85;98.34
49979;BME280;35869;50.990;6.962;2023-03-31T04:08:01;99773.34;;;10.79;98.91
49979;BME280;35869;50.990;6.962;2023-03-31T04:13:02;99758.63;;;10.79;100.00
49979;BME280;35869;50.990;6.962;2023-03-31T04:18:03;99757.75;;;10.79;99.50
49979;BME280;35869;50.990;6.962;2023-03-31T04:23:03;99743.09;;;10.78;100.00
49979;BME280;35869;50.990;6.962;2023-03-31T04:28:04;99745.69;;;10.78;99.81
49979;BME280;35869;50.990;6.962;2023-03-31T04:33:04;99707.84;;;10.74;100.00
49979;BME280;35869;50.990;6.962;2023-03-31T04:38:04;99676.44;;;10.77;98.92
49979;BME280;35869;50.990;6.962;2023-03-31T04:43:04;99665.44;;;10.73;100.00
49979;BME280;35869;50.990;6.962;2023-03-31T04:48:05;99663.56;;;10.75;100.00
49979;BME280;35869;50.990;6.962;2023-03-31T04:53:05;99650.84;;;10.71;100.00
49979;BME280;35869;50.990;6.962;2023-03-31T04:58:05;99641.09;;;10.74;99.35
49979;BME280;35869;50.990;6.962;2023-03-31T05:03:06;99619.94;;;10.66;99.97
49979;BME280;35869;50.990;6.962;2023-03-31T05:08:06;99610.47;;;10.65;100.00
49979;BME280;35869;50.990;6.962;2023-03-31T05:13:08;99604.34;;;10.66;99.96
49979;BME280;35869;50.990;6.962;2023-03-31T05:18:08;99589.97;;;10.60;100.00
49979;BME280;35869;50.990;6.962;2023-03-31T05:23:09;99579.50;;;10.62;100.00
49979;BME280;35869;50.990;6.962;2023-03-31T05:28:09;99565.19;;;10.55;100.00
49979;BME280;35869;50.990;6.962;2023-03-31T05:33:09;99553.03;;;10.55;99.65
49979;BME280;35869;50.990;6.962;2023-03-31T05:38:09;99549.53;;;10.56;100.00
49979;BME280;35869;50.990;6.962;2023-03-31T05:43:10;99541.81;;;10.55;99.43
49979;BME280;35869;50.990;6.962;2023-03-31T05:48:10;99536.72;;;10.53;99.08
49979;BME280;35869;50.990;6.962;2023-03-31T05:53:10;99528.31;;;10.50;100.00
49979;BME280;35869;50.990;6.962;2023-03-31T05:58:10;99531.75;;;10.50;99.79
49979;BME280;35869;50.990;6.962;2023-03-31T06:03:10;99525.63;;;10.51;99.83
49979;BME280;35869;50.990;6.962;2023-03-31T06:08:11;99517.72;;;10.53;99.67
49979;BME280;35869;50.990;6.962;2023-03-31T06:13:11;99515.41;;;10.48;100.00
49979;BME280;35869;50.990;6.962;2023-03-31T06:18:11;99505.75;;;10.50;100.00
49979;BME280;35869;50.990;6.962;2023-03-31T06:23:11;99496.88;;;10.40;100.00
49979;BME280;35869;50.990;6.962;2023-03-31T06:28:11;99492.69;;;10.37;100.00
49979;BME280;35869;50.990;6.962;2023-03-31T06:33:12;99487.97;;;10.44;100.00
49979;BME280;35869;50.990;6.962;2023-03-31T06:38:12;99497.53;;;10.29;100.00
49979;BME280;35869;50.990;6.962;2023-03-31T06:43:12;99490.03;;;10.39;100.00
49979;BME280;35869;50.990;6.962;2023-03-31T06:48:13;99484.91;;;10.37;100.00
49979;BME280;35869;50.990;6.962;2023-03-31T06:53:13;99474.44;;;10.39;100.00
49979;BME280;35869;50.990;6.962;2023-03-31T06:58:13;99477.09;;;10.37;100.00
49979;BME280;35869;50.990;6.962;2023-03-31T07:03:14;99467.03;;;10.33;99.34
49979;BME280;35869;50.990;6.962;2023-03-31T07:08:14;99468.16;;;10.29;100.00
49979;BME280;35869;50.990;6.962;2023-03-31T07:13:15;99458.59;;;10.29;99.95
49979;BME280;35869;50.990;6.962;2023-03-31T07:18:17;99464.44;;;10.33;100.00
49979;BME280;35869;50.990;6.962;2023-03-31T07:23:17;99453.72;;;10.37;100.00
49979;BME280;35869;50.990;6.962;2023-03-31T07:28:18;99441.22;;;10.44;98.72
49979;BME280;35869;50.990;6.962;2023-03-31T07:33:18;99439.13;;;10.49;99.15
49979;BME280;35869;50.990;6.962;2023-03-31T07:38:19;99429.09;;;10.57;98.72
49979;BME280;35869;50.990;6.962;2023-03-31T07:43:19;99440.00;;;10.50;100.00
49979;BME280;35869;50.990;6.962;2023-03-31T07:48:19;99432.56;;;10.71;98.26
49979;BME280;35869;50.990;6.962;2023-03-31T07:53:19;99428.59;;;10.78;97.84
49979;BME280;35869;50.990;6.962;2023-03-31T07:58:19;99427.72;;;10.91;96.71
49979;BME280;35869;50.990;6.962;2023-03-31T08:03:19;99436.13;;;10.95;97.58
49979;BME280;35869;50.990;6.962;2023-03-31T08:08:20;99428.75;;;11.02;98.48
49979;BME280;35869;50.990;6.962;2023-03-31T08:13:20;99422.22;;;11.09;98.20
49979;BME280;35869;50.990;6.962;2023-03-31T08:18:20;99412.53;;;11.11;98.95
49979;BME280;35869;50.990;6.962;2023-03-31T08:23:21;99411.59;;;11.37;95.75
49979;BME280;35869;50.990;6.962;2023-03-31T08:28:21;99400.59;;;11.34;97.78
49979;BME280;35869;50.990;6.962;2023-03-31T08:33:21;99392.88;;;11.19;100.00
49979;BME280;35869;50.990;6.962;2023-03-31T08:38:21;99386.22;;;11.41;97.98
49979;BME280;35869;50.990;6.962;2023-03-31T08:43:26;99388.19;;;11.50;99.24
49979;BME280;35869;50.990;6.962;2023-03-31T08:48:37;99381.19;;;11.63;98.30
49979;BME280;35869;50.990;6.962;2023-03-31T08:53:54;99390.34;;;11.69;98.83
49979;BME280;35869;50.990;6.962;2023-03-31T08:58:56;99373.66;;;11.84;97.25
49979;BME280;35869;50.990;6.962;2023-03-31T09:04:24;99363.31;;;11.95;96.74
49979;BME280;35869;50.990;6.962;2023-03-31T09:09:41;99367.03;;;12.28;94.49
49979;BME280;35869;50.990;6.962;2023-03-31T09:19:57;99360.56;;;12.34;95.33
49979;BME280;35869;50.990;6.962;2023-03-31T09:25:18;99356.09;;;12.47;95.19
49979;BME280;35869;50.990;6.962;2023-03-31T09:30:31;99345.28;;;12.87;91.47
49979;BME280;35869;50.990;6.962;2023-03-31T09:35:32;99339.22;;;12.75;92.75
49979;BME280;35869;50.990;6.962;2023-03-31T09:40:33;99331.81;;;13.04;91.90
49979;BME280;35869;50.990;6.962;2023-03-31T09:45:33;99330.97;;;12.92;91.65
49979;BME280;35869;50.990;6.962;2023-03-31T09:50:41;99327.91;;;13.10;90.84
49979;BME280;35869;50.990;6.962;2023-03-31T09:55:46;99311.03;;;12.80;87.42
49979;BME280;35869;50.990;6.962;2023-03-31T10:01:01;99307.84;;;13.10;83.89
49979;BME280;35869;50.990;6.962;2023-03-31T10:06:09;99292.09;;;13.23;84.78
49979;BME280;35869;50.990;6.962;2023-03-31T10:11:11;99285.56;;;13.40;84.77
49979;BME280;35869;50.990;6.962;2023-03-31T10:16:14;99291.25;;;13.45;82.68
49979;BME280;35869;50.990;6.962;2023-03-31T10:21:26;99295.06;;;13.29;84.14
49979;BME280;35869;50.990;6.962;2023-03-31T10:26:27;99290.19;;;13.47;83.54
49979;BME280;35869;50.990;6.962;2023-03-31T10:31:37;99279.88;;;13.46;85.54
49979;BME280;35869;50.990;6.962;2023-03-31T10:36:45;99268.59;;;13.45;84.90
49979;BME280;35869;50.990;6.962;2023-03-31T10:41:50;99258.41;;;13.85;82.92
49979;BME280;35869;50.990;6.962;2023-03-31T10:46:51;99254.53;;;14.01;82.63
49979;BME280;35869;50.990;6.962;2023-03-31T10:51:56;99239.31;;;14.06;83.05
49979;BME280;35869;50.990;6.962;2023-03-31T10:56:58;99242.63;;;14.29;81.73
49979;BME280;35869;50.990;6.962;2023-03-31T11:02:38;99249.09;;;14.25;80.45
49979;BME280;35869;50.990;6.962;2023-03-31T11:24:09;99298.16;;;14.21;83.35
49979;BME280;35869;50.990;6.962;2023-03-31T11:34:47;99276.47;;;14.09;85.36
49979;BME280;35869;50.990;6.962;2023-03-31T11:45:04;99276.88;;;13.94;86.03
49979;BME280;35869;50.990;6.962;2023-03-31T11:50:14;99269.63;;;13.97;86.54
49979;BME280;35869;50.990;6.962;2023-03-31T11:55:17;99250.66;;;14.16;85.23
49979;BME280;35869;50.990;6.962;2023-03-31T12:00:20;99245.84;;;14.32;85.17
49979;BME280;35869;50.990;6.962;2023-03-31T12:05:23;99228.75;;;14.28;84.54
49979;BME280;35869;50.990;6.962;2023-03-31T12:10:41;99226.69;;;14.11;86.24
49979;BME280;35869;50.990;6.962;2023-03-31T12:15:56;99230.38;;;13.87;86.98
49979;BME280;35869;50.990;6.962;2023-03-31T12:21:01;99216.63;;;14.27;83.48
49979;BME280;35869;50.990;6.962;2023-03-31T12:26:12;99212.31;;;13.96;85.35
49979;BME280;35869;50.990;6.962;2023-03-31T12:31:20;99201.91;;;13.84;85.67
49979;BME280;35869;50.990;6.962;2023-03-31T12:42:13;99205.53;;;13.93;84.24
49979;BME280;35869;50.990;6.962;2023-03-31T12:47:38;99198.25;;;13.76;86.64
49979;BME280;35869;50.990;6.962;2023-03-31T12:52:49;99192.56;;;13.71;83.22
49979;BME280;35869;50.990;6.962;2023-03-31T13:09:01;99199.94;;;13.33;82.39
49979;BME280;35869;50.990;6.962;2023-03-31T13:19:02;99193.44;;;13.17;86.75
49979;BME280;35869;50.990;6.962;2023-03-31T13:24:05;99180.38;;;13.60;82.28
49979;BME280;35869;50.990;6.962;2023-03-31T13:34:15;99183.34;;;13.23;83.09
49979;BME280;35869;50.990;6.962;2023-03-31T13:39:46;99166.63;;;13.58;82.14
49979;BME280;35869;50.990;6.962;2023-03-31T13:44:54;99182.25;;;13.69;83.81
49979;BME280;35869;50.990;6.962;2023-03-31T13:50:18;99174.69;;;13.34;79.75
49979;BME280;35869;50.990;6.962;2023-03-31T14:00:54;99175.44;;;13.57;81.94
49979;BME280;35869;50.990;6.962;2023-03-31T14:06:01;99172.00;;;13.56;83.50
49979;BME280;35869;50.990;6.962;2023-03-31T14:11:26;99168.13;;;13.72;83.07
49979;BME280;35869;50.990;6.962;2023-03-31T14:16:28;99157.16;;;13.57;82.69
49979;BME280;35869;50.990;6.962;2023-03-31T14:21:38;99147.00;;;13.75;82.71
49979;BME280;35869;50.990;6.962;2023-03-31T14:37:33;99134.31;;;13.70;78.20
49979;BME280;35869;50.990;6.962;2023-03-31T14:42:40;99134.06;;;13.73;78.09
49979;BME280;35869;50.990;6.962;2023-03-31T14:47:41;99119.53;;;13.80;77.93
49979;BME280;35869;50.990;6.962;2023-03-31T14:52:49;99118.13;;;13.97;74.58
49979;BME280;35869;50.990;6.962;2023-03-31T14:57:50;99116.84;;;13.71;76.17
49979;BME280;35869;50.990;6.962;2023-03-31T15:02:51;99108.66;;;13.96;77.00
49979;BME280;35869;50.990;6.962;2023-03-31T15:07:54;99105.00;;;13.87;75.25
49979;BME280;35869;50.990;6.962;2023-03-31T15:12:55;99108.91;;;13.93;74.20
49979;BME280;35869;50.990;6.962;2023-03-31T15:17:55;99115.06;;;13.71;75.65
49979;BME280;35869;50.990;6.962;2023-03-31T15:22:56;99106.72;;;13.77;73.07
49979;BME280;35869;50.990;6.962;2023-03-31T15:28:00;99102.16;;;13.70;75.49
49979;BME280;35869;50.990;6.962;2023-03-31T15:33:05;99128.50;;;13.46;76.84
49979;BME280;35869;50.990;6.962;2023-03-31T15:38:09;99128.78;;;13.31;80.55
49979;BME280;35869;50.990;6.962;2023-03-31T15:43:26;99142.97;;;13.50;81.98
49979;BME280;35869;50.990;6.962;2023-03-31T15:48:35;99158.13;;;13.56;82.63
49979;BME280;35869;50.990;6.962;2023-03-31T15:53:43;99160.22;;;13.30;86.46
49979;BME280;35869;50.990;6.962;2023-03-31T15:58:54;99164.50;;;13.31;87.29
49979;BME280;35869;50.990;6.962;2023-03-31T16:03:55;99152.47;;;13.40;85.00
49979;BME280;35869;50.990;6.962;2023-03-31T16:09:00;99174.34;;;13.05;86.99
49979;BME280;35869;50.990;6.962;2023-03-31T16:14:07;99188.03;;;12.75;87.96
49979;BME280;35869;50.990;6.962;2023-03-31T16:19:09;99167.88;;;12.77;86.49
49979;BME280;35869;50.990;6.962;2023-03-31T16:24:09;99190.84;;;12.72;86.54
49979;BME280;35869;50.990;6.962;2023-03-31T16:29:14;99156.88;;;12.85;86.10
49979;BME280;35869;50.990;6.962;2023-03-31T16:34:18;99157.78;;;12.84;88.42
49979;BME280;35869;50.990;6.962;2023-03-31T16:39:18;99169.56;;;12.67;88.18
49979;BME280;35869;50.990;6.962;2023-03-31T16:44:18;99161.00;;;12.42;89.23
49979;BME280;35869;50.990;6.962;2023-03-31T16:49:18;99158.28;;;12.44;89.23
49979;BME280;35869;50.990;6.962;2023-03-31T16:54:18;99157.22;;;12.46;89.79
49979;BME280;35869;50.990;6.962;2023-03-31T16:59:19;99138.16;;;12.46;87.29
49979;BME280;35869;50.990;6.962;2023-03-31T17:04:19;99133.53;;;12.49;89.34
49979;BME280;35869;50.990;6.962;2023-03-31T17:09:19;99135.91;;;12.41;88.51
49979;BME280;35869;50.990;6.962;2023-03-31T17:14:19;99130.94;;;12.27;90.92
49979;BME280;35869;50.990;6.962;2023-03-31T17:19:19;99105.81;;;12.15;89.32
49979;BME280;35869;50.990;6.962;2023-03-31T17:24:20;99126.88;;;12.12;88.23
49979;BME280;35869;50.990;6.962;2023-03-31T17:29:20;99135.97;;;12.06;87.99
49979;BME280;35869;50.990;6.962;2023-03-31T17:34:20;99134.91;;;11.97;89.47
49979;BME280;35869;50.990;6.962;2023-03-31T17:39:20;99146.28;;;11.96;87.95
49979;BME280;35869;50.990;6.962;2023-03-31T17:44:21;99163.06;;;11.92;87.12
49979;BME280;35869;50.990;6.962;2023-03-31T17:49:21;99151.03;;;11.67;88.90
49979;BME280;35869;50.990;6.962;2023-03-31T17:54:22;99167.38;;;11.81;88.27
49979;BME280;35869;50.990;6.962;2023-03-31T17:59:22;99155.84;;;11.85;87.07
49979;BME280;35869;50.990;6.962;2023-03-31T18:04:22;99162.09;;;11.82;88.98
49979;BME280;35869;50.990;6.962;2023-03-31T18:09:22;99169.06;;;11.82;88.21
49979;BME280;35869;50.990;6.962;2023-03-31T18:14:23;99162.78;;;11.84;87.93
49979;BME280;35869;50.990;6.962;2023-03-31T18:19:23;99171.88;;;11.79;88.25
49979;BME280;35869;50.990;6.962;2023-03-31T18:24:23;99170.72;;;11.83;86.18
49979;BME280;35869;50.990;6.962;2023-03-31T18:29:24;99177.09;;;11.79;87.84
49979;BME280;35869;50.990;6.962;2023-03-31T18:34:24;99186.28;;;11.71;88.37
49979;BME280;35869;50.990;6.962;2023-03-31T18:39:24;99191.72;;;11.68;88.15
49979;BME280;35869;50.990;6.962;2023-03-31T18:44:24;99206.66;;;11.30;92.33
49979;BME280;35869;50.990;6.962;2023-03-31T18:49:25;99199.41;;;11.46;89.85
49979;BME280;35869;50.990;6.962;2023-03-31T18:54:25;99205.31;;;11.48;90.96
49979;BME280;35869;50.990;6.962;2023-03-31T18:59:25;99202.53;;;11.51;90.82
49979;BME280;35869;50.990;6.962;2023-03-31T19:04:25;99197.25;;;11.40;91.21
49979;BME280;35869;50.990;6.962;2023-03-31T19:09:25;99194.66;;;11.40;91.69
49979;BME280;35869;50.990;6.962;2023-03-31T19:14:26;99196.81;;;11.46;91.66
49979;BME280;35869;50.990;6.962;2023-03-31T19:19:26;99195.81;;;11.36;92.15
49979;BME280;35869;50.990;6.962;2023-03-31T19:24:26;99198.78;;;11.18;92.57
49979;BME280;35869;50.990;6.962;2023-03-31T19:29:26;99183.56;;;11.25;91.77
49979;BME280;35869;50.990;6.962;2023-03-31T19:34:27;99190.00;;;11.32;90.92
49979;BME280;35869;50.990;6.962;2023-03-31T19:39:27;99192.44;;;11.23;93.36
49979;BME280;35869;50.990;6.962;2023-03-31T19:44:28;99207.41;;;11.19;91.84
49979;BME280;35869;50.990;6.962;2023-03-31T19:49:28;99195.50;;;11.04;93.67
49979;BME280;35869;50.990;6.962;2023-03-31T19:54:28;99191.28;;;11.27;91.47
49979;BME280;35869;50.990;6.962;2023-03-31T19:59:28;99193.31;;;11.10;92.67
49979;BME280;35869;50.990;6.962;2023-03-31T20:04:29;99192.59;;;11.08;93.32
49979;BME280;35869;50.990;6.962;2023-03-31T20:09:29;99195.31;;;10.94;93.40
49979;BME280;35869;50.990;6.962;2023-03-31T20:14:30;99179.31;;;10.87;93.25
49979;BME280;35869;50.990;6.962;2023-03-31T20:19:30;99196.25;;;10.93;92.25
49979;BME280;35869;50.990;6.962;2023-03-31T20:24:30;99186.28;;;10.87;91.71
49979;BME280;35869;50.990;6.962;2023-03-31T20:29:31;99190.44;;;10.89;90.74
49979;BME280;35869;50.990;6.962;2023-03-31T20:34:31;99190.47;;;11.13;91.78
49979;BME280;35869;50.990;6.962;2023-03-31T20:39:31;99190.53;;;10.88;91.70
49979;BME280;35869;50.990;6.962;2023-03-31T20:44:31;99189.63;;;10.76;92.14
49979;BME280;35869;50.990;6.962;2023-03-31T20:49:32;99196.59;;;10.76;93.45
49979;BME280;35869;50.990;6.962;2023-03-31T20:54:32;99196.25;;;10.93;91.65
49979;BME280;35869;50.990;6.962;2023-03-31T20:59:32;99184.84;;;10.83;91.93
49979;BME280;35869;50.990;6.962;2023-03-31T21:04:32;99191.84;;;10.70;92.11
49979;BME280;35869;50.990;6.962;2023-03-31T21:09:32;99189.44;;;10.66;93.61
49979;BME280;35869;50.990;6.962;2023-03-31T21:14:33;99198.66;;;10.83;92.22
49979;BME280;35869;50.990;6.962;2023-03-31T21:19:33;99196.19;;;10.82;91.95
49979;BME280;35869;50.990;6.962;2023-03-31T21:24:33;99203.44;;;10.77;92.95
49979;BME280;35869;50.990;6.962;2023-03-31T21:29:33;99192.66;;;10.70;92.47
49979;BME280;35869;50.990;6.962;2023-03-31T21:34:34;99198.47;;;10.86;89.86
49979;BME280;35869;50.990;6.962;2023-03-31T21:39:34;99196.19;;;10.69;93.41
49979;BME280;35869;50.990;6.962;2023-03-31T21:44:34;99195.56;;;10.65;92.96
49979;BME280;35869;50.990;6.962;2023-03-31T21:49:34;99181.16;;;10.61;92.70
49979;BME280;35869;50.990;6.962;2023-03-31T21:54:34;99196.19;;;10.69;90.96
49979;BME280;35869;50.990;6.962;2023-03-31T21:59:35;99198.59;;;10.59;92.61
49979;BME280;35869;50.990;6.962;2023-03-31T22:04:35;99192.44;;;10.60;93.03
49979;BME280;35869;50.990;6.962;2023-03-31T22:09:35;99176.75;;;10.49;93.53
49979;BME280;35869;50.990;6.962;2023-03-31T22:14:36;99184.56;;;10.49;91.77
49979;BME280;35869;50.990;6.962;2023-03-31T22:19:36;99179.81;;;10.56;91.56
49979;BME280;35869;50.990;6.962;2023-03-31T22:24:36;99180.22;;;10.62;93.02
49979;BME280;35869;50.990;6.962;2023-03-31T22:29:37;99173.34;;;10.74;91.60
49979;BME280;35869;50.990;6.962;2023-03-31T22:34:37;99171.75;;;10.72;91.37
49979;BME280;35869;50.990;6.962;2023-03-31T22:39:38;99177.72;;;10.48;94.55
49979;BME280;35869;50.990;6.962;2023-03-31T22:44:38;99178.63;;;10.60;92.59
49979;BME280;35869;50.990;6.962;2023-03-31T22:49:38;99182.06;;;10.60;93.16
49979;BME280;35869;50.990;6.962;2023-03-31T22:54:39;99189.25;;;10.57;93.52
49979;BME280;35869;50.990;6.962;2023-03-31T22:59:39;99176.75;;;10.49;94.85
49979;BME280;35869;50.990;6.962;2023-03-31T23:04:39;99179.06;;;10.41;95.85
49979;BME280;35869;50.990;6.962;2023-03-31T23:09:39;99177.00;;;10.46;95.16
49979;BME280;35869;50.990;6.962;2023-03-31T23:14:40;99167.53;;;10.45;96.67
49979;BME280;35869;50.990;6.962;2023-03-31T23:19:40;99171.69;;;10.48;96.42
49979;BME280;35869;50.990;6.962;2023-03-31T23:24:40;99177.94;;;10.45;94.98
49979;BME280;35869;50.990;6.962;2023-03-31T23:29:41;99176.69;;;10.38;95.13
49979;BME280;35869;50.990;6.962;2023-03-31T23:34:41;99188.09;;;10.35;95.70
49979;BME280;35869;50.990;6.962;2023-03-31T23:39:41;99172.53;;;10.35;95.16
49979;BME280;35869;50.990;6.962;2023-03-31T23:44:41;99172.00;;;10.43;94.74
49979;BME280;35869;50.990;6.962;2023-03-31T23:49:42;99165.66;;;10.47;94.38
49979;BME280;35869;50.990;6.962;2023-03-31T23:54:42;99173.25;;;10.50;94.65
49979;BME280;35869;50.990;6.962;2023-03-31T23:59:42;99169.41;;;10.43;95.95
